createdAt,value
2022-12-16T00:01:18.681Z,94716.44
2022-12-16T00:03:54.952Z,94725.69
2022-12-16T00:06:27.342Z,94722.09
2022-12-16T00:08:58.983Z,94723.72
2022-12-16T00:11:28.518Z,94727.34
2022-12-16T00:13:57.464Z,94731.22
2022-12-16T00:16:26.782Z,94718.69
2022-12-16T00:18:57.719Z,94727.59
2022-12-16T00:21:31.518Z,94720.78
2022-12-16T00:24:00.759Z,94730.88
2022-12-16T00:26:31.427Z,94719.88
2022-12-16T00:29:00.508Z,94719.97
2022-12-16T00:31:29.685Z,94718.69
2022-12-16T00:34:01.867Z,94721.66
2022-12-16T00:36:30.889Z,94722.91
2022-12-16T00:38:59.835Z,94720.56
2022-12-16T00:41:29.362Z,94736.06
2022-12-16T00:43:59.550Z,94738.47
2022-12-16T00:46:28.667Z,94739.88
2022-12-16T00:48:57.680Z,94734.44
2022-12-16T00:51:28.896Z,94731.22
2022-12-16T00:53:58.072Z,94730.63
2022-12-16T00:56:27.332Z,94738.56
2022-12-16T00:58:57.241Z,94736.25
2022-12-16T01:01:26.483Z,94738.69
2022-12-16T01:03:58.630Z,94738.47
2022-12-16T01:06:30.311Z,94748.78
2022-12-16T01:08:59.654Z,94733.91
2022-12-16T01:11:28.729Z,94736.75
2022-12-16T01:13:57.861Z,94735.56
2022-12-16T01:16:31.144Z,94732.91
2022-12-16T01:19:01.077Z,94730.69
2022-12-16T01:21:31.600Z,94717.00
2022-12-16T01:24:00.831Z,94722.06
2022-12-16T01:26:29.850Z,94720.78
2022-12-16T01:29:00.231Z,94714.47
2022-12-16T01:31:30.075Z,94714.47
2022-12-16T01:34:00.587Z,94707.81
2022-12-16T01:36:31.609Z,94710.47
2022-12-16T01:39:01.110Z,94700.59
2022-12-16T01:41:30.658Z,94701.41
2022-12-16T01:44:16.142Z,94712.47
2022-12-16T01:46:47.534Z,94714.22
2022-12-16T01:49:24.251Z,94706.00
2022-12-16T01:52:00.050Z,94706.00
2022-12-16T01:54:33.017Z,94703.16
2022-12-16T01:57:05.318Z,94694.38
2022-12-16T01:59:37.242Z,94693.44
2022-12-16T02:02:07.379Z,94695.19
2022-12-16T02:04:56.502Z,94687.78
2022-12-16T02:07:27.219Z,94679.75
2022-12-16T02:09:57.673Z,94685.34
2022-12-16T02:12:33.746Z,94676.50
2022-12-16T02:15:17.360Z,94669.03
2022-12-16T02:17:55.839Z,94677.31
2022-12-16T02:21:12.311Z,94691.38
2022-12-16T02:24:20.337Z,94689.13
2022-12-16T02:27:19.085Z,94699.78
2022-12-16T02:30:27.097Z,94697.63
2022-12-16T02:33:12.290Z,94685.34
2022-12-16T02:35:46.436Z,94685.38
2022-12-16T02:38:24.985Z,94691.38
2022-12-16T02:40:58.971Z,94688.78
2022-12-16T02:43:49.907Z,94680.38
2022-12-16T02:46:21.172Z,94695.44
2022-12-16T02:48:51.828Z,94688.41
2022-12-16T02:51:21.782Z,94683.34
2022-12-16T02:53:53.342Z,94688.84
2022-12-16T02:56:33.405Z,94674.91
2022-12-16T02:59:17.202Z,94686.19
2022-12-16T03:01:55.716Z,94687.78
2022-12-16T03:04:33.979Z,94684.72
2022-12-16T03:07:03.687Z,94691.56
2022-12-16T03:09:36.974Z,94690.75
2022-12-16T03:12:11.607Z,94716.88
2022-12-16T03:14:46.251Z,94717.28
2022-12-16T03:17:17.286Z,94694.16
2022-12-16T03:19:56.794Z,94688.69
2022-12-16T03:22:31.266Z,94696.34
2022-12-16T03:25:00.943Z,94697.13
2022-12-16T03:27:36.170Z,94693.34
2022-12-16T03:30:10.272Z,94698.59
2022-12-16T03:32:43.459Z,94697.53
2022-12-16T03:35:17.826Z,94687.06
2022-12-16T03:37:49.930Z,94685.28
2022-12-16T03:40:21.764Z,94688.25
2022-12-16T03:42:54.312Z,94698.06
2022-12-16T03:45:28.025Z,94701.31
2022-12-16T03:47:59.922Z,94705.91
2022-12-16T03:50:33.941Z,94714.94
2022-12-16T03:53:03.816Z,94703.50
2022-12-16T03:55:34.152Z,94700.28
2022-12-16T03:58:03.681Z,94693.03
2022-12-16T04:00:33.298Z,94691.63
2022-12-16T04:03:03.065Z,94704.91
2022-12-16T04:05:34.373Z,94689.88
2022-12-16T04:08:04.036Z,94684.28
2022-12-16T04:10:50.596Z,94690.56
2022-12-16T04:13:36.957Z,94687.94
2022-12-16T04:16:24.195Z,94687.31
2022-12-16T04:19:10.696Z,94680.69
2022-12-16T04:21:58.539Z,94686.97
2022-12-16T04:24:30.380Z,94675.72
2022-12-16T04:27:17.965Z,94667.47
2022-12-16T04:30:04.214Z,94672.72
2022-12-16T04:32:49.279Z,94664.88
2022-12-16T04:35:35.650Z,94685.59
2022-12-16T04:38:23.847Z,94689.41
2022-12-16T04:41:10.739Z,94689.56
2022-12-16T04:43:57.251Z,94691.16
2022-12-16T04:46:43.982Z,94686.31
2022-12-16T04:49:31.250Z,94675.63
2022-12-16T04:52:17.539Z,94677.44
2022-12-16T04:55:05.404Z,94671.00
2022-12-16T04:57:51.618Z,94668.97
2022-12-16T05:00:38.841Z,94673.81
2022-12-16T05:03:25.417Z,94694.84
2022-12-16T05:06:12.581Z,94701.97
2022-12-16T05:09:00.260Z,94723.06
2022-12-16T05:11:48.560Z,94715.22
2022-12-16T05:14:36.358Z,94706.38
2022-12-16T05:17:23.813Z,94727.72
2022-12-16T05:20:10.082Z,94730.44
2022-12-16T05:22:57.608Z,94730.22
2022-12-16T05:25:44.460Z,94715.47
2022-12-16T05:28:32.137Z,94723.59
2022-12-16T05:31:18.404Z,94727.41
2022-12-16T05:34:04.841Z,94727.00
2022-12-16T05:37:00.999Z,94731.44
2022-12-16T05:39:48.326Z,94744.50
2022-12-16T05:42:34.510Z,94728.97
2022-12-16T05:45:22.455Z,94741.75
2022-12-16T05:48:08.441Z,94744.56
2022-12-16T05:50:55.797Z,94754.47
2022-12-16T05:53:42.369Z,94759.66
2022-12-16T05:56:29.072Z,94759.25
2022-12-16T05:59:15.365Z,94759.56
2022-12-16T06:02:03.672Z,94736.78
2022-12-16T06:04:50.406Z,94766.53
2022-12-16T06:07:36.761Z,94758.53
2022-12-16T06:10:24.117Z,94743.69
2022-12-16T06:13:10.951Z,94750.16
2022-12-16T06:16:09.505Z,94752.22
2022-12-16T06:18:57.810Z,94762.41
2022-12-16T06:21:44.341Z,94769.72
2022-12-16T06:24:31.005Z,94769.34
2022-12-16T06:27:19.489Z,94769.50
2022-12-16T06:30:05.691Z,94766.56
2022-12-16T06:32:52.629Z,94755.28
2022-12-16T06:35:40.420Z,94751.28
2022-12-16T06:38:26.711Z,94756.75
2022-12-16T06:41:13.697Z,94752.75
2022-12-16T06:44:01.052Z,94753.69
2022-12-16T06:46:47.649Z,94747.09
2022-12-16T06:49:34.084Z,94762.25
2022-12-16T06:52:22.148Z,94767.47
2022-12-16T06:55:09.453Z,94770.66
2022-12-16T06:57:57.557Z,94764.06
2022-12-16T07:00:43.832Z,94780.00
2022-12-16T07:03:35.358Z,94783.44
2022-12-16T07:06:22.270Z,94795.28
2022-12-16T07:09:12.675Z,94809.22
2022-12-16T07:12:08.002Z,94801.41
2022-12-16T07:14:54.145Z,94779.03
2022-12-16T07:17:40.417Z,94789.16
2022-12-16T07:20:28.177Z,94798.81
2022-12-16T07:23:19.486Z,94799.56
2022-12-16T07:26:08.851Z,94807.28
2022-12-16T07:28:55.583Z,94798.25
2022-12-16T07:31:42.501Z,94802.94
2022-12-16T07:34:29.071Z,94808.41
2022-12-16T07:37:15.519Z,94823.94
2022-12-16T07:40:02.479Z,94823.56
2022-12-16T07:42:51.461Z,94836.53
2022-12-16T07:45:43.312Z,94844.03
2022-12-16T07:48:31.909Z,94831.50
2022-12-16T07:51:18.377Z,94818.84
2022-12-16T07:54:05.044Z,94828.56
2022-12-16T07:56:51.875Z,94823.16
2022-12-16T07:59:40.016Z,94808.28
2022-12-16T08:02:29.160Z,94804.25
2022-12-16T08:05:15.665Z,94799.63
2022-12-16T08:08:02.312Z,94807.22
2022-12-16T08:10:48.431Z,94813.22
2022-12-16T08:13:35.630Z,94820.81
2022-12-16T08:16:33.766Z,94819.44
2022-12-16T08:19:20.687Z,94812.22
2022-12-16T08:22:22.331Z,94808.19
2022-12-16T08:25:09.153Z,94805.16
2022-12-16T08:27:55.433Z,94797.81
2022-12-16T08:30:42.757Z,94806.09
2022-12-16T08:33:31.582Z,94795.97
2022-12-16T08:36:18.929Z,94789.41
2022-12-16T08:39:05.965Z,94793.84
2022-12-16T08:41:52.124Z,94798.91
2022-12-16T08:44:39.112Z,94801.09
2022-12-16T08:47:25.325Z,94795.66
2022-12-16T08:50:13.636Z,94800.00
2022-12-16T08:53:00.049Z,94796.97
2022-12-16T08:55:46.259Z,94810.47
2022-12-16T08:58:34.325Z,94791.78
2022-12-16T09:01:21.018Z,94783.09
2022-12-16T09:04:07.608Z,94791.03
2022-12-16T09:06:55.622Z,94761.03
2022-12-16T09:09:47.220Z,94755.28
2022-12-16T09:12:34.269Z,94771.94
2022-12-16T09:15:20.833Z,94745.59
2022-12-16T09:18:12.698Z,94752.75
2022-12-16T09:20:59.122Z,94757.19
2022-12-16T09:23:47.716Z,94755.13
2022-12-16T09:26:34.304Z,94752.13
2022-12-16T09:29:21.779Z,94742.47
2022-12-16T09:32:08.096Z,94734.09
2022-12-16T09:34:55.450Z,94741.03
2022-12-16T09:37:41.978Z,94726.91
2022-12-16T09:40:34.414Z,94730.66
2022-12-16T09:43:31.217Z,94731.50
2022-12-16T09:46:26.334Z,94734.19
2022-12-16T09:49:25.124Z,94724.09
2022-12-16T09:52:17.977Z,94728.88
2022-12-16T09:55:06.123Z,94727.25
2022-12-16T09:57:56.066Z,94722.97
2022-12-16T10:00:44.896Z,94712.81
2022-12-16T10:03:38.773Z,94720.84
2022-12-16T10:06:40.562Z,94703.78
2022-12-16T10:09:35.813Z,94695.00
2022-12-16T10:12:30.527Z,94682.47
2022-12-16T10:15:31.811Z,94705.66
2022-12-16T10:18:24.415Z,94699.81
2022-12-16T10:21:14.093Z,94686.19
2022-12-16T10:24:04.514Z,94695.81
2022-12-16T10:26:59.655Z,94693.13
2022-12-16T10:29:49.551Z,94701.84
2022-12-16T10:32:48.044Z,94687.69
2022-12-16T10:35:40.711Z,94690.56
2022-12-16T10:38:37.090Z,94680.09
2022-12-16T10:41:24.725Z,94675.88
2022-12-16T10:44:28.644Z,94681.25
2022-12-16T10:47:14.425Z,94678.97
2022-12-16T10:50:02.424Z,94673.81
2022-12-16T10:52:50.667Z,94684.63
2022-12-16T10:55:47.896Z,94679.16
2022-12-16T10:58:42.300Z,94659.75
2022-12-16T11:01:41.450Z,94661.94
2022-12-16T11:04:46.791Z,94660.06
2022-12-16T11:07:53.405Z,94655.56
2022-12-16T11:10:52.191Z,94656.34
2022-12-16T11:13:43.037Z,94653.75
2022-12-16T11:16:36.342Z,94642.41
2022-12-16T11:19:23.844Z,94643.69
2022-12-16T11:22:25.823Z,94630.47
2022-12-16T11:25:41.032Z,94634.41
2022-12-16T11:28:32.881Z,94638.56
2022-12-16T11:31:23.834Z,94617.38
2022-12-16T11:34:12.614Z,94627.47
2022-12-16T11:37:01.403Z,94634.44
2022-12-16T11:39:56.208Z,94627.97
2022-12-16T11:42:48.493Z,94620.22
2022-12-16T11:45:37.825Z,94633.84
2022-12-16T11:48:32.074Z,94619.03
2022-12-16T11:51:21.041Z,94616.22
2022-12-16T11:54:11.418Z,94611.75
2022-12-16T11:57:02.173Z,94605.72
2022-12-16T11:59:56.448Z,94600.88
2022-12-16T12:02:51.997Z,94589.34
2022-12-16T12:05:49.626Z,94597.03
2022-12-16T12:08:48.353Z,94587.06
2022-12-16T12:11:41.877Z,94582.44
2022-12-16T12:14:37.192Z,94588.72
2022-12-16T12:17:38.149Z,94590.22
2022-12-16T12:20:50.051Z,94581.69
2022-12-16T12:23:45.453Z,94584.81
2022-12-16T12:26:36.103Z,94589.47
2022-12-16T12:29:33.798Z,94590.19
2022-12-16T12:32:30.463Z,94585.13
2022-12-16T12:35:29.246Z,94587.22
2022-12-16T12:38:22.523Z,94580.88
2022-12-16T12:41:19.751Z,94592.59
2022-12-16T12:44:17.877Z,94583.25
2022-12-16T12:47:12.390Z,94571.28
2022-12-16T12:50:08.050Z,94568.94
2022-12-16T12:53:16.707Z,94562.09
2022-12-16T12:56:11.689Z,94563.28
2022-12-16T12:59:01.686Z,94589.03
2022-12-16T13:01:51.298Z,94586.81
2022-12-16T13:04:41.492Z,94581.31
2022-12-16T13:07:28.803Z,94580.84
2022-12-16T13:10:50.523Z,94580.44
2022-12-16T13:13:50.942Z,94578.50
2022-12-16T13:17:25.859Z,94576.63
2022-12-16T13:20:15.912Z,94581.63
2022-12-16T13:23:03.696Z,94577.31
2022-12-16T13:25:56.558Z,94566.41
2022-12-16T13:28:46.100Z,94573.50
2022-12-16T13:31:33.339Z,94578.19
2022-12-16T13:34:26.046Z,94591.38
2022-12-16T13:37:19.504Z,94599.75
2022-12-16T13:40:23.589Z,94593.69
2022-12-16T13:43:13.012Z,94593.78
2022-12-16T13:46:01.778Z,94601.66
2022-12-16T13:48:52.509Z,94596.63
2022-12-16T13:52:20.793Z,94599.44
2022-12-16T13:55:13.093Z,94605.78
2022-12-16T13:58:02.556Z,94606.22
2022-12-16T14:00:55.660Z,94607.59
2022-12-16T14:03:52.675Z,94599.38
2022-12-16T14:06:43.653Z,94605.06
2022-12-16T14:09:44.162Z,94607.59
2022-12-16T14:12:46.217Z,94603.28
2022-12-16T14:15:44.605Z,94594.97
2022-12-16T14:18:44.110Z,94597.22
2022-12-16T14:21:37.135Z,94603.41
2022-12-16T14:24:28.723Z,94601.41
2022-12-16T14:27:15.377Z,94610.72
2022-12-16T14:30:03.392Z,94609.09
2022-12-16T14:32:52.036Z,94610.72
2022-12-16T14:35:41.888Z,94620.06
2022-12-16T14:38:42.439Z,94616.81
2022-12-16T14:41:34.669Z,94608.88
2022-12-16T14:44:24.143Z,94602.44
2022-12-16T14:47:11.254Z,94617.47
2022-12-16T14:50:10.302Z,94618.16
2022-12-16T14:52:59.700Z,94618.50
2022-12-16T14:55:48.608Z,94605.09
2022-12-16T14:58:38.353Z,94615.31
2022-12-16T15:01:32.550Z,94630.34
2022-12-16T15:04:22.220Z,94610.81
2022-12-16T15:10:30.388Z,94635.56
2022-12-16T15:13:17.163Z,94618.69
2022-12-16T15:16:07.926Z,94623.75
2022-12-16T15:18:59.162Z,94632.25
2022-12-16T15:19:15.660Z,94625.94
2022-12-16T15:21:46.050Z,94622.97
2022-12-16T15:24:37.015Z,94624.00
2022-12-16T15:27:41.802Z,94631.03
2022-12-16T15:30:57.151Z,94642.25
2022-12-16T15:33:45.383Z,94645.03
2022-12-16T15:36:42.870Z,94651.34
2022-12-16T15:39:40.787Z,94662.06
2022-12-16T15:42:40.359Z,94658.28
2022-12-16T15:45:37.245Z,94664.25
2022-12-16T15:48:31.699Z,94657.94
2022-12-16T15:51:20.620Z,94673.63
2022-12-16T15:54:21.191Z,94664.91
2022-12-16T15:57:08.315Z,94670.97
2022-12-16T16:00:13.397Z,94655.53
2022-12-16T16:03:07.266Z,94658.19
2022-12-16T16:05:55.350Z,94658.91
2022-12-16T16:08:41.715Z,94659.03
2022-12-16T16:11:31.223Z,94663.25
2022-12-16T16:14:17.682Z,94664.53
2022-12-16T16:17:06.931Z,94652.59
2022-12-16T16:19:53.717Z,94659.69
2022-12-16T16:22:40.001Z,94650.41
2022-12-16T16:25:28.601Z,94661.09
2022-12-16T16:28:15.392Z,94662.56
2022-12-16T16:31:02.485Z,94670.50
2022-12-16T16:33:50.927Z,94664.06
2022-12-16T16:36:38.229Z,94678.19
2022-12-16T16:39:25.256Z,94672.47
2022-12-16T16:42:11.685Z,94680.59
2022-12-16T16:44:58.951Z,94693.44
2022-12-16T16:47:44.738Z,94680.25
2022-12-16T16:50:34.636Z,94681.41
2022-12-16T16:53:23.919Z,94666.81
2022-12-16T16:56:18.198Z,94675.78
2022-12-16T16:59:08.165Z,94681.84
2022-12-16T17:01:54.800Z,94682.75
2022-12-16T17:04:42.230Z,94670.69
2022-12-16T17:07:31.892Z,94671.59
2022-12-16T17:10:19.621Z,94674.88
2022-12-16T17:13:06.231Z,94663.41
2022-12-16T17:15:56.559Z,94669.59
2022-12-16T17:18:55.010Z,94670.06
2022-12-16T17:21:46.568Z,94678.16
2022-12-16T17:24:34.405Z,94678.38
2022-12-16T17:27:32.478Z,94678.28
2022-12-16T17:30:19.687Z,94674.94
2022-12-16T17:33:09.516Z,94697.34
2022-12-16T17:35:56.745Z,94695.41
2022-12-16T17:38:42.953Z,94695.84
2022-12-16T17:41:31.040Z,94702.75
2022-12-16T17:44:17.725Z,94703.91
2022-12-16T17:47:04.287Z,94701.81
2022-12-16T17:49:52.346Z,94690.72
2022-12-16T17:52:38.673Z,94687.34
2022-12-16T17:55:26.303Z,94667.50
2022-12-16T17:58:14.231Z,94676.00
2022-12-16T18:01:00.910Z,94665.66
2022-12-16T18:03:47.878Z,94675.09
2022-12-16T18:06:34.403Z,94670.13
2022-12-16T18:09:21.243Z,94676.00
2022-12-16T18:12:08.913Z,94687.28
2022-12-16T18:14:57.578Z,94685.16
2022-12-16T18:17:44.430Z,94688.97
2022-12-16T18:20:32.722Z,94687.81
2022-12-16T18:23:18.968Z,94689.41
2022-12-16T18:26:16.518Z,94693.78
2022-12-16T18:29:03.192Z,94689.09
2022-12-16T18:31:52.181Z,94707.22
2022-12-16T18:34:36.110Z,94703.91
2022-12-16T18:37:22.860Z,94714.91
2022-12-16T18:40:09.380Z,94704.00
2022-12-16T18:42:55.481Z,94712.84
2022-12-16T18:45:41.936Z,94725.31
2022-12-16T18:48:31.078Z,94701.38
2022-12-16T18:51:19.435Z,94706.28
2022-12-16T18:54:08.127Z,94719.50
2022-12-16T18:56:54.786Z,94708.47
2022-12-16T18:59:41.613Z,94707.00
2022-12-16T19:02:28.676Z,94716.19
2022-12-16T19:05:27.066Z,94712.63
2022-12-16T19:08:14.598Z,94716.31
2022-12-16T19:11:01.638Z,94734.66
2022-12-16T19:13:48.345Z,94731.09
2022-12-16T19:16:35.676Z,94737.72
2022-12-16T19:19:22.762Z,94742.31
2022-12-16T19:22:10.740Z,94736.13
2022-12-16T19:24:57.172Z,94747.03
2022-12-16T19:27:43.610Z,94745.53
2022-12-16T19:30:31.011Z,94749.31
2022-12-16T19:33:18.154Z,94743.50
2022-12-16T19:36:04.843Z,94746.34
2022-12-16T19:38:53.723Z,94752.88
2022-12-16T19:41:43.652Z,94742.44
2022-12-16T19:44:30.012Z,94750.59
2022-12-16T19:47:16.682Z,94754.03
2022-12-16T19:50:03.481Z,94747.16
2022-12-16T19:52:50.761Z,94731.66
2022-12-16T19:55:40.235Z,94743.22
2022-12-16T19:58:27.561Z,94744.47
2022-12-16T20:01:14.574Z,94733.44
2022-12-16T20:04:03.368Z,94734.34
2022-12-16T20:10:02.548Z,94741.59
2022-12-16T20:12:51.514Z,94741.31
2022-12-16T20:15:38.328Z,94739.56
2022-12-16T20:18:25.265Z,94746.31
2022-12-16T20:21:12.440Z,94752.88
2022-12-16T20:24:00.038Z,94749.97
2022-12-16T20:26:46.968Z,94741.78
2022-12-16T20:29:34.942Z,94742.09
2022-12-16T20:32:23.054Z,94745.47
2022-12-16T20:35:22.738Z,94741.38
2022-12-16T20:38:11.956Z,94731.94
2022-12-16T20:40:58.550Z,94733.00
2022-12-16T20:43:45.292Z,94723.53
2022-12-16T20:46:33.079Z,94734.50
2022-12-16T20:49:21.052Z,94732.44
2022-12-16T20:52:08.869Z,94750.91
2022-12-16T20:54:59.326Z,94744.50
2022-12-16T20:57:45.741Z,94741.50
2022-12-16T21:00:34.328Z,94750.81
2022-12-16T21:03:26.650Z,94738.78
2022-12-16T21:06:13.362Z,94741.56
2022-12-16T21:09:01.103Z,94737.44
2022-12-16T21:11:45.342Z,94744.81
2022-12-16T21:14:32.032Z,94747.44
2022-12-16T21:17:18.389Z,94738.66
2022-12-16T21:20:06.247Z,94742.19
2022-12-16T21:22:54.534Z,94744.81
2022-12-16T21:25:43.495Z,94744.56
2022-12-16T21:28:32.246Z,94748.22
2022-12-16T21:31:27.493Z,94751.00
2022-12-16T21:34:14.045Z,94741.78
2022-12-16T21:37:01.848Z,94744.50
2022-12-16T21:39:48.601Z,94745.16
2022-12-16T21:42:37.624Z,94738.31
2022-12-16T21:45:26.866Z,94736.53
2022-12-16T21:48:13.623Z,94744.88
2022-12-16T21:51:01.413Z,94748.84
2022-12-16T21:53:49.402Z,94746.38
2022-12-16T21:56:36.642Z,94740.31
2022-12-16T21:59:23.797Z,94742.25
2022-12-16T22:02:11.304Z,94749.50
2022-12-16T22:04:58.066Z,94747.47
2022-12-16T22:07:45.918Z,94748.00
2022-12-16T22:10:35.105Z,94754.44
2022-12-16T22:13:21.364Z,94750.50
2022-12-16T22:16:14.284Z,94748.88
2022-12-16T22:19:02.317Z,94748.72
2022-12-16T22:21:49.417Z,94743.09
2022-12-16T22:24:36.680Z,94731.78
2022-12-16T22:27:25.221Z,94732.03
2022-12-16T22:30:11.610Z,94731.13
2022-12-16T22:32:59.277Z,94734.09
2022-12-16T22:35:45.646Z,94731.97
2022-12-16T22:38:31.834Z,94722.34
2022-12-16T22:41:19.431Z,94721.31
2022-12-16T22:44:08.069Z,94726.63
2022-12-16T22:47:06.112Z,94711.03
2022-12-16T22:49:52.332Z,94700.81
2022-12-16T22:52:42.651Z,94697.28
2022-12-16T22:55:29.222Z,94699.78
2022-12-16T22:58:15.555Z,94690.63
2022-12-16T23:01:03.352Z,94713.28
2022-12-16T23:03:50.210Z,94703.94
2022-12-16T23:06:36.740Z,94721.50
2022-12-16T23:09:23.843Z,94700.09
2022-12-16T23:12:10.412Z,94706.59
2022-12-16T23:14:58.767Z,94704.75
2022-12-16T23:17:44.630Z,94686.47
2022-12-16T23:20:31.766Z,94688.25
2022-12-16T23:23:19.196Z,94695.59
2022-12-16T23:26:14.201Z,94691.63
2022-12-16T23:29:04.415Z,94674.25
2022-12-16T23:32:06.678Z,94665.75
2022-12-16T23:34:55.228Z,94677.41
2022-12-16T23:37:42.422Z,94658.75
2022-12-16T23:40:29.892Z,94665.41
2022-12-16T23:43:17.101Z,94656.72
2022-12-16T23:46:03.409Z,94677.41
2022-12-16T23:48:52.534Z,94670.72
2022-12-16T23:51:42.679Z,94676.19
2022-12-16T23:54:37.353Z,94664.88
2022-12-16T23:57:23.927Z,94676.63
